Time;durP1;ratioP1;P1;durP2;ratioP2;P2;SDS_P1;SDS_P2;PMS_P1;PMS_P2;Temp;Humidity;BMP_temperature;BMP_pressure;BME280_temperature;BME280_humidity;BME280_pressure;Samples;Min_cycle;Max_cycle;Signal;HPM_P1;HPM_P2
2022/03/24 00:00:44;;;;;;;9.10;7.90;;;14.10;67.30;;;;;;5051547;28;20546;-48
2022/03/24 00:03:12;;;;;;;12.47;9.83;;;14.10;67.50;;;;;;5054530;28;20459;-47
2022/03/24 00:05:44;;;;;;;8.87;7.97;;;14.10;67.30;;;;;;5051660;28;21002;-50
2022/03/24 00:08:12;;;;;;;10.63;8.60;;;14.10;67.70;;;;;;5070033;28;20543;-47
2022/03/24 00:10:40;;;;;;;8.90;8.00;;;14.10;67.70;;;;;;5071917;28;21472;-50
2022/03/24 00:13:10;;;;;;;9.70;8.30;;;14.10;67.80;;;;;;5060147;28;21019;-50
2022/03/24 00:15:38;;;;;;;8.97;8.07;;;14.10;67.80;;;;;;5045973;28;20463;-49
2022/03/24 00:18:07;;;;;;;9.63;8.63;;;14.10;68.00;;;;;;5066286;28;20532;-50
2022/03/24 00:20:36;;;;;;;8.80;7.63;;;14.10;67.90;;;;;;5058768;28;20492;-48
2022/03/24 00:23:04;;;;;;;9.90;9.10;;;14.10;68.00;;;;;;5059582;28;20470;-49
2022/03/24 00:25:32;;;;;;;10.37;7.73;;;14.10;67.80;;;;;;5051285;28;20466;-46
2022/03/24 00:28:00;;;;;;;8.70;7.90;;;14.10;67.90;;;;;;5050582;28;20476;-47
2022/03/24 00:30:30;;;;;;;10.50;8.60;;;14.10;68.10;;;;;;5064397;28;20523;-47
2022/03/24 00:32:59;;;;;;;9.70;8.73;;;14.10;67.60;;;;;;5050974;28;20553;-48
2022/03/24 00:35:27;;;;;;;9.97;9.07;;;14.00;67.70;;;;;;5051207;28;20455;-46
2022/03/24 00:37:56;;;;;;;8.80;7.37;;;14.10;68.00;;;;;;5068916;28;20560;-46
2022/03/24 00:40:24;;;;;;;8.87;7.97;;;14.10;67.90;;;;;;5071289;28;20502;-48
2022/03/24 00:42:53;;;;;;;11.97;8.47;;;14.10;67.80;;;;;;5042808;28;20984;-48
2022/03/24 00:45:21;;;;;;;9.20;8.23;;;14.10;67.90;;;;;;5050500;28;20449;-49
2022/03/24 00:47:50;;;;;;;8.80;7.90;;;14.10;68.20;;;;;;5064753;28;20953;-50
2022/03/24 00:50:19;;;;;;;9.90;8.90;;;14.10;68.00;;;;;;5070450;28;20433;-48
2022/03/24 00:52:49;;;;;;;9.37;7.67;;;14.00;67.80;;;;;;5068869;28;20839;-47
2022/03/24 00:55:19;;;;;;;9.03;7.80;;;14.00;68.00;;;;;;5050471;28;20457;-49
2022/03/24 00:57:49;;;;;;;9.73;7.70;;;14.00;68.00;;;;;;5056823;28;20986;-46
2022/03/24 01:00:20;;;;;;;8.53;7.73;;;14.00;67.90;;;;;;5069948;28;20471;-46
2022/03/24 01:02:52;;;;;;;9.23;7.90;;;14.00;68.00;;;;;;5069589;28;20461;-48
2022/03/24 01:05:23;;;;;;;10.43;8.17;;;14.00;67.80;;;;;;5045657;28;20549;-47
2022/03/24 01:07:51;;;;;;;9.53;8.53;;;14.00;67.90;;;;;;5068199;28;20951;-49
2022/03/24 01:10:20;;;;;;;11.80;9.97;;;14.00;67.80;;;;;;5052095;28;21157;-49
2022/03/24 01:12:49;;;;;;;9.73;8.83;;;14.00;68.00;;;;;;5051210;28;20461;-48
2022/03/24 01:15:23;;;;;;;9.47;7.90;;;14.00;68.10;;;;;;5069695;28;20485;-49
2022/03/24 01:17:53;;;;;;;9.83;8.50;;;14.00;68.30;;;;;;5068157;28;20581;-49
2022/03/24 01:20:22;;;;;;;7.80;7.10;;;14.00;68.40;;;;;;5069988;28;20472;-48
2022/03/24 01:22:53;;;;;;;11.10;9.47;;;14.00;68.50;;;;;;5054593;28;20531;-46
2022/03/24 01:25:26;;;;;;;9.23;8.33;;;14.00;68.30;;;;;;5050428;28;20442;-47
2022/03/24 01:27:55;;;;;;;9.97;8.97;;;14.00;68.30;;;;;;5031832;28;20433;-47
2022/03/24 01:30:24;;;;;;;9.20;8.30;;;14.00;68.10;;;;;;5049516;28;20442;-50
2022/03/24 01:32:54;;;;;;;9.93;8.93;;;13.90;67.90;;;;;;5058573;28;20462;-49
2022/03/24 01:35:23;;;;;;;11.53;8.60;;;14.00;68.20;;;;;;5062229;28;20442;-49
2022/03/24 01:37:51;;;;;;;10.93;9.83;;;14.00;68.20;;;;;;5054196;28;20544;-48
2022/03/24 01:40:19;;;;;;;11.00;9.77;;;13.90;67.90;;;;;;5063013;28;20503;-48
2022/03/24 01:42:48;;;;;;;10.63;9.17;;;14.00;68.20;;;;;;5069446;28;20454;-49
2022/03/24 01:45:16;;;;;;;10.93;9.40;;;13.90;68.20;;;;;;5068737;28;20451;-50
2022/03/24 01:47:45;;;;;;;9.57;8.57;;;13.90;68.20;;;;;;5060518;28;20449;-46
2022/03/24 01:50:17;;;;;;;9.73;8.43;;;13.90;68.10;;;;;;5048379;28;20463;-47
2022/03/24 01:52:46;;;;;;;11.03;8.80;;;13.90;68.10;;;;;;5043358;28;20465;-48
2022/03/24 01:55:14;;;;;;;8.27;7.37;;;13.90;68.30;;;;;;5069162;28;20499;-49
2022/03/24 01:57:45;;;;;;;9.03;8.13;;;13.90;68.40;;;;;;5057920;28;20502;-48
2022/03/24 02:00:14;;;;;;;10.00;9.13;;;13.90;68.40;;;;;;5051079;28;20457;-49
2022/03/24 02:02:44;;;;;;;9.17;8.30;;;13.90;68.30;;;;;;5060880;28;20560;-47
2022/03/24 02:05:12;;;;;;;13.00;9.40;;;13.90;68.20;;;;;;5034036;28;20460;-47
2022/03/24 02:07:44;;;;;;;11.03;9.07;;;13.90;68.30;;;;;;5043113;28;20787;-48
2022/03/24 02:10:12;;;;;;;13.50;9.33;;;13.90;68.10;;;;;;5031783;28;20473;-48
2022/03/24 02:12:43;;;;;;;11.83;9.80;;;13.90;68.30;;;;;;5065346;28;20461;-46
2022/03/24 02:15:12;;;;;;;11.50;9.73;;;13.90;68.30;;;;;;5041310;28;20461;-49
2022/03/24 02:17:41;;;;;;;11.47;8.83;;;13.80;68.20;;;;;;5054454;28;20557;-47
2022/03/24 02:20:10;;;;;;;13.00;10.63;;;13.90;68.40;;;;;;5055450;28;20837;-49
2022/03/24 02:22:40;;;;;;;10.80;9.17;;;13.80;68.20;;;;;;5046876;28;20476;-48
2022/03/24 02:25:09;;;;;;;10.40;8.80;;;13.90;68.40;;;;;;5068851;28;20466;-49
2022/03/24 02:27:38;;;;;;;12.57;10.07;;;13.90;68.40;;;;;;5053083;28;20437;-48
2022/03/24 02:30:08;;;;;;;8.60;7.70;;;13.90;68.90;;;;;;5052983;28;20476;-47
2022/03/24 02:32:36;;;;;;;10.63;8.00;;;13.80;68.90;;;;;;5064997;28;20524;-48
2022/03/24 02:35:04;;;;;;;12.20;9.70;;;13.80;69.00;;;;;;5072690;28;20459;-49
2022/03/24 02:37:33;;;;;;;12.00;10.67;;;13.80;68.90;;;;;;5066205;28;20499;-47
2022/03/24 02:40:02;;;;;;;8.90;8.00;;;13.80;68.90;;;;;;5052771;28;20473;-48
2022/03/24 02:42:32;;;;;;;9.90;8.93;;;13.80;68.60;;;;;;5053295;28;20843;-47
2022/03/24 02:45:03;;;;;;;10.37;9.10;;;13.80;68.60;;;;;;5052630;28;20510;-49
2022/03/24 02:47:31;;;;;;;10.37;9.27;;;13.80;68.50;;;;;;5057763;28;20512;-48
2022/03/24 02:50:01;;;;;;;11.40;9.60;;;13.80;68.40;;;;;;5034690;28;20481;-49
2022/03/24 02:52:29;;;;;;;9.80;8.30;;;13.80;68.40;;;;;;5056087;28;20519;-46
2022/03/24 02:54:57;;;;;;;8.43;7.60;;;13.80;68.60;;;;;;5052810;28;20469;-48
2022/03/24 02:57:27;;;;;;;10.37;7.93;;;13.80;68.80;;;;;;5053133;28;20491;-49
2022/03/24 02:59:55;;;;;;;9.27;8.30;;;13.80;69.10;;;;;;5052604;28;20470;-47
2022/03/24 03:02:23;;;;;;;8.93;8.03;;;13.80;69.10;;;;;;5059600;28;20439;-47
2022/03/24 03:04:53;;;;;;;9.77;8.77;;;13.80;68.90;;;;;;5052164;28;20461;-49
2022/03/24 03:07:22;;;;;;;13.00;9.60;;;13.70;68.50;;;;;;5060953;28;20444;-47
2022/03/24 03:09:50;;;;;;;10.27;9.17;;;13.70;68.40;;;;;;5055277;28;20461;-48
2022/03/24 03:12:19;;;;;;;12.27;8.90;;;13.80;68.70;;;;;;5065288;28;20428;-48
2022/03/24 03:14:48;;;;;;;8.87;7.90;;;13.80;68.70;;;;;;5070578;28;20474;-49
2022/03/24 03:17:16;;;;;;;8.80;7.87;;;13.70;68.70;;;;;;5072410;28;20471;-49
2022/03/24 03:19:46;;;;;;;9.33;7.80;;;13.70;68.90;;;;;;5072606;28;20469;-49
2022/03/24 03:22:15;;;;;;;10.10;7.17;;;13.70;68.70;;;;;;5072038;28;20466;-47
2022/03/24 03:24:44;;;;;;;8.83;8.03;;;13.70;68.80;;;;;;5071346;28;20563;-47
2022/03/24 03:27:12;;;;;;;9.77;8.87;;;13.70;70.10;;;;;;5072860;28;20502;-47
2022/03/24 03:29:41;;;;;;;11.77;9.27;;;13.70;68.80;;;;;;5065097;28;20501;-49
2022/03/24 03:32:11;;;;;;;9.60;7.77;;;13.70;68.80;;;;;;5063902;28;20853;-49
2022/03/24 03:34:41;;;;;;;11.67;10.20;;;13.70;68.90;;;;;;5071167;28;20477;-48
2022/03/24 03:37:11;;;;;;;9.80;8.47;;;13.70;68.90;;;;;;5064985;28;21470;-47
2022/03/24 03:39:39;;;;;;;11.57;9.90;;;13.70;68.70;;;;;;5072367;28;20465;-48
2022/03/24 03:42:08;;;;;;;11.07;9.50;;;13.60;68.60;;;;;;5072528;28;20858;-49
2022/03/24 03:44:36;;;;;;;11.13;9.07;;;13.70;68.70;;;;;;5054030;28;20468;-47
2022/03/24 03:47:05;;;;;;;12.40;10.20;;;13.70;68.80;;;;;;5072198;28;20432;-48
2022/03/24 03:49:35;;;;;;;11.53;9.27;;;13.60;68.70;;;;;;5072036;28;20483;-49
2022/03/24 03:52:23;;;;;;;9.17;8.07;;;13.60;68.90;;;;;;5059810;28;20444;-47
2022/03/24 03:54:52;;;;;;;11.40;10.17;;;13.60;68.90;;;;;;5063843;28;20477;-46
2022/03/24 03:57:20;;;;;;;13.33;9.90;;;13.60;68.80;;;;;;5052518;28;20814;-49
2022/03/24 03:59:48;;;;;;;10.67;8.10;;;13.60;68.80;;;;;;5051420;28;20477;-49
2022/03/24 04:02:16;;;;;;;11.33;9.40;;;13.60;68.60;;;;;;5063757;28;20453;-48
2022/03/24 04:04:46;;;;;;;12.40;11.10;;;13.60;68.80;;;;;;5061724;28;20534;-48
2022/03/24 04:07:14;;;;;;;12.30;9.83;;;13.60;68.70;;;;;;5052528;28;20436;-49
2022/03/24 04:09:42;;;;;;;10.73;9.50;;;13.60;68.70;;;;;;5069946;28;20496;-46
2022/03/24 04:12:11;;;;;;;11.50;7.90;;;13.60;68.90;;;;;;5054189;28;20503;-46
2022/03/24 04:14:39;;;;;;;12.20;9.90;;;13.60;68.90;;;;;;5070443;28;20527;-49
2022/03/24 04:17:08;;;;;;;12.00;8.70;;;13.60;68.90;;;;;;5060022;28;20920;-48
2022/03/24 04:19:36;;;;;;;10.17;8.27;;;13.50;68.90;;;;;;5051267;28;20468;-48
2022/03/24 04:22:06;;;;;;;10.63;9.53;;;13.60;69.20;;;;;;5053896;28;20446;-48
2022/03/24 04:24:34;;;;;;;10.47;9.10;;;13.60;69.40;;;;;;5050796;28;21054;-50
2022/03/24 04:27:02;;;;;;;10.00;8.63;;;13.60;69.30;;;;;;5051541;28;20461;-48
2022/03/24 04:29:30;;;;;;;9.33;8.40;;;13.50;69.30;;;;;;5051101;28;20469;-49
2022/03/24 04:31:58;;;;;;;10.67;8.73;;;13.50;69.40;;;;;;5060661;28;20498;-48
2022/03/24 04:34:27;;;;;;;14.33;10.60;;;13.50;69.40;;;;;;5070279;28;20464;-48
2022/03/24 04:36:55;;;;;;;11.83;10.53;;;13.50;69.10;;;;;;5068164;28;20528;-48
2022/03/24 04:39:25;;;;;;;9.53;8.43;;;13.50;69.10;;;;;;5057632;28;20568;-48
2022/03/24 04:41:54;;;;;;;10.47;8.50;;;13.50;69.40;;;;;;5057193;28;20924;-47
2022/03/24 04:44:22;;;;;;;11.40;9.73;;;13.50;69.40;;;;;;5050322;28;20509;-48
2022/03/24 04:46:50;;;;;;;12.60;8.80;;;13.50;69.40;;;;;;5054282;28;20444;-50
2022/03/24 04:49:18;;;;;;;10.30;9.00;;;13.50;69.60;;;;;;5050888;28;20498;-50
2022/03/24 04:51:47;;;;;;;9.40;8.50;;;13.50;69.70;;;;;;5053464;28;20471;-49
2022/03/24 04:54:15;;;;;;;9.93;8.80;;;13.50;69.90;;;;;;5070123;28;20464;-48
2022/03/24 04:56:44;;;;;;;10.57;8.57;;;13.50;69.80;;;;;;5071082;28;20973;-49
2022/03/24 04:59:12;;;;;;;9.23;8.33;;;13.40;69.80;;;;;;5065810;28;20480;-48
2022/03/24 05:01:41;;;;;;;10.60;9.13;;;13.40;69.70;;;;;;5053036;28;20942;-49
2022/03/24 05:04:10;;;;;;;10.27;8.80;;;13.40;69.70;;;;;;5069433;28;20495;-48
2022/03/24 05:06:38;;;;;;;9.37;8.43;;;13.40;69.70;;;;;;5070093;28;20493;-47
2022/03/24 05:09:06;;;;;;;14.07;9.67;;;13.40;69.80;;;;;;5059335;28;20622;-47
2022/03/24 05:11:35;;;;;;;11.10;8.83;;;13.40;69.80;;;;;;5056329;28;20489;-47
2022/03/24 05:14:05;;;;;;;9.87;8.80;;;13.40;69.70;;;;;;5069489;28;20476;-50
2022/03/24 05:16:33;;;;;;;9.00;8.00;;;13.40;69.90;;;;;;5069625;28;20451;-49
2022/03/24 05:19:01;;;;;;;9.60;8.60;;;13.40;71.30;;;;;;5049768;28;20479;-48
2022/03/24 05:21:31;;;;;;;10.27;9.27;;;13.40;70.00;;;;;;5050331;28;20859;-46
2022/03/24 05:23:59;;;;;;;9.80;8.27;;;13.40;70.10;;;;;;5051487;28;20515;-48
2022/03/24 05:26:28;;;;;;;9.60;8.37;;;13.40;70.10;;;;;;5049560;28;20445;-46
2022/03/24 05:28:56;;;;;;;9.60;8.60;;;13.40;70.00;;;;;;5052626;28;20476;-46
2022/03/24 05:31:26;;;;;;;10.87;9.40;;;13.40;70.00;;;;;;5065298;28;20455;-48
2022/03/24 05:33:54;;;;;;;10.37;8.20;;;13.40;70.10;;;;;;5050059;28;20479;-47
2022/03/24 05:36:22;;;;;;;12.03;10.77;;;13.30;70.00;;;;;;5062432;28;20974;-51
2022/03/24 05:38:55;;;;;;;10.30;8.37;;;13.30;70.20;;;;;;5050146;28;20472;-49
2022/03/24 05:41:23;;;;;;;9.10;8.23;;;13.40;70.30;;;;;;5058115;28;20456;-47
2022/03/24 05:44:03;;;;;;;10.43;8.80;;;13.40;70.10;;;;;;5070316;28;20475;-49
2022/03/24 05:46:44;;;;;;;10.63;9.60;;;13.30;70.00;;;;;;5061284;28;20967;-46
2022/03/24 05:49:16;;;;;;;11.13;9.47;;;13.30;70.10;;;;;;5068920;28;20487;-49
2022/03/24 05:52:11;;;;;;;10.30;9.13;;;13.30;69.90;;;;;;5067036;28;20451;-49
2022/03/24 05:54:39;;;;;;;15.13;9.97;;;13.30;69.90;;;;;;5069489;28;20897;-48
2022/03/24 05:57:08;;;;;;;8.53;7.63;;;13.30;70.10;;;;;;5070657;28;20987;-48
2022/03/24 05:59:36;;;;;;;8.93;7.80;;;13.30;70.10;;;;;;5069310;28;20475;-48
2022/03/24 06:02:06;;;;;;;9.43;7.73;;;13.30;70.20;;;;;;5069633;28;20525;-51
2022/03/24 06:04:35;;;;;;;10.13;8.30;;;13.30;70.30;;;;;;5068724;28;21021;-49
2022/03/24 06:07:04;;;;;;;9.20;8.30;;;13.30;70.00;;;;;;5063749;28;20852;-48
2022/03/24 06:09:34;;;;;;;8.80;7.90;;;13.30;70.00;;;;;;5052971;28;20464;-47
2022/03/24 06:12:03;;;;;;;9.00;7.80;;;13.20;69.80;;;;;;5070418;28;20443;-48
2022/03/24 06:14:31;;;;;;;11.43;9.03;;;13.20;69.80;;;;;;5068855;28;20493;-49
2022/03/24 06:16:59;;;;;;;10.80;8.80;;;13.30;70.00;;;;;;5069512;28;20946;-47
2022/03/24 06:19:29;;;;;;;10.07;8.27;;;13.30;69.90;;;;;;5069252;28;20499;-48
2022/03/24 06:21:57;;;;;;;8.73;7.83;;;13.20;69.90;;;;;;5069522;28;20451;-47
2022/03/24 06:24:25;;;;;;;9.17;8.23;;;13.20;69.70;;;;;;5052419;28;20487;-49
2022/03/24 06:26:54;;;;;;;9.90;8.37;;;13.20;70.00;;;;;;5050178;28;20530;-48
2022/03/24 06:29:22;;;;;;;10.37;8.13;;;13.20;69.90;;;;;;5058627;28;20813;-47
2022/03/24 06:31:50;;;;;;;11.10;9.67;;;13.20;69.70;;;;;;5060702;28;20838;-46
2022/03/24 06:34:19;;;;;;;11.50;8.00;;;13.20;69.80;;;;;;5048241;28;20503;-50
2022/03/24 06:36:48;;;;;;;10.07;7.80;;;13.20;69.70;;;;;;5051011;28;20435;-50
2022/03/24 06:39:16;;;;;;;9.13;8.03;;;13.20;70.00;;;;;;5057249;28;20499;-49
2022/03/24 06:41:45;;;;;;;11.57;8.63;;;13.20;69.90;;;;;;5059980;28;20503;-48
2022/03/24 06:44:20;;;;;;;9.90;8.90;;;13.20;70.10;;;;;;5051149;28;20566;-48
2022/03/24 06:46:49;;;;;;;13.60;9.30;;;13.20;69.90;;;;;;5063079;28;20453;-48
2022/03/24 06:49:17;;;;;;;10.97;8.90;;;13.20;69.60;;;;;;5068457;28;20464;-49
2022/03/24 06:51:45;;;;;;;10.70;8.60;;;13.20;69.50;;;;;;5069024;28;20438;-47
2022/03/24 06:54:15;;;;;;;9.63;8.50;;;13.20;69.60;;;;;;5068520;28;20482;-48
2022/03/24 06:56:44;;;;;;;12.33;10.23;;;13.20;69.80;;;;;;5070238;28;20829;-50
2022/03/24 06:59:17;;;;;;;10.20;8.80;;;13.20;69.50;;;;;;5056108;28;20501;-48
2022/03/24 07:01:45;;;;;;;13.90;8.30;;;13.20;69.80;;;;;;5071277;28;20447;-50
2022/03/24 07:04:13;;;;;;;9.00;7.90;;;13.20;69.80;;;;;;5060581;28;20484;-49
2022/03/24 07:06:43;;;;;;;11.93;9.30;;;13.20;69.60;;;;;;5068129;28;20438;-44
2022/03/24 07:09:11;;;;;;;11.80;9.40;;;13.20;69.80;;;;;;5073161;28;20463;-49
2022/03/24 07:11:41;;;;;;;9.57;7.87;;;13.20;69.60;;;;;;5068021;28;20491;-49
2022/03/24 07:14:10;;;;;;;10.43;8.90;;;13.20;69.70;;;;;;5052560;28;20468;-48
2022/03/24 07:16:39;;;;;;;13.83;10.17;;;13.20;69.70;;;;;;5053450;28;20445;-46
2022/03/24 07:19:08;;;;;;;10.40;9.33;;;13.20;69.50;;;;;;5052295;28;20472;-48
2022/03/24 07:21:36;;;;;;;10.97;9.67;;;13.20;69.40;;;;;;5062812;28;20859;-50
2022/03/24 07:24:05;;;;;;;11.33;9.60;;;13.20;69.00;;;;;;5072559;28;20529;-49
2022/03/24 07:26:34;;;;;;;10.60;9.47;;;13.30;69.20;;;;;;5070144;28;20481;-47
2022/03/24 07:29:04;;;;;;;10.07;8.00;;;13.20;69.20;;;;;;5052907;28;20462;-47
2022/03/24 07:31:32;;;;;;;9.13;7.20;;;13.20;69.20;;;;;;5056599;28;20473;-46
2022/03/24 07:34:01;;;;;;;9.40;7.33;;;13.20;69.40;;;;;;5052372;28;20517;-47
2022/03/24 07:36:29;;;;;;;8.00;7.20;;;13.20;69.50;;;;;;5055995;28;20428;-50
2022/03/24 07:38:59;;;;;;;7.43;6.73;;;13.30;69.80;;;;;;5051929;28;20483;-49
2022/03/24 07:41:29;;;;;;;12.33;7.30;;;13.20;69.90;;;;;;5052862;28;20435;-47
2022/03/24 07:43:58;;;;;;;7.23;6.53;;;13.20;69.80;;;;;;5034649;28;20529;-48
2022/03/24 07:46:30;;;;;;;6.70;6.10;;;13.30;70.00;;;;;;5070919;28;20436;-48
2022/03/24 07:48:58;;;;;;;8.07;7.23;;;13.30;70.10;;;;;;5072445;28;20468;-47
2022/03/24 07:51:31;;;;;;;7.17;6.57;;;13.20;70.00;;;;;;5072594;28;20470;-50
2022/03/24 07:54:02;;;;;;;8.50;7.67;;;13.20;70.20;;;;;;5056939;28;21085;-48
2022/03/24 07:56:34;;;;;;;7.80;6.17;;;13.20;70.10;;;;;;5058006;28;20441;-49
2022/03/24 07:59:02;;;;;;;7.17;6.47;;;13.30;70.30;;;;;;5058085;28;20493;-48
2022/03/24 08:01:34;;;;;;;7.00;6.40;;;13.20;70.20;;;;;;5071381;28;20825;-49
2022/03/24 08:04:05;;;;;;;6.40;5.80;;;13.30;70.30;;;;;;5071548;28;20475;-48
2022/03/24 08:06:36;;;;;;;6.87;6.17;;;13.30;70.40;;;;;;5071691;28;20429;-49
2022/03/24 08:09:04;;;;;;;7.20;6.50;;;13.30;70.20;;;;;;5055346;28;20535;-49
2022/03/24 08:11:33;;;;;;;7.27;6.47;;;13.30;70.30;;;;;;5060832;28;20436;-46
2022/03/24 08:14:01;;;;;;;6.17;5.57;;;13.30;70.30;;;;;;5051029;28;20487;-50
2022/03/24 08:16:30;;;;;;;7.40;6.20;;;13.30;70.40;;;;;;5063486;28;20442;-45
2022/03/24 08:19:00;;;;;;;5.47;4.93;;;13.30;70.20;;;;;;5071650;28;20479;-49
2022/03/24 08:21:29;;;;;;;8.07;6.10;;;13.30;70.40;;;;;;5070513;28;20443;-47
2022/03/24 08:23:57;;;;;;;7.37;6.57;;;13.30;70.30;;;;;;5064041;28;20474;-49
2022/03/24 08:26:25;;;;;;;8.00;5.83;;;13.30;70.30;;;;;;5054432;28;20433;-49
2022/03/24 08:28:56;;;;;;;6.30;5.67;;;13.30;70.30;;;;;;5052703;28;20471;-49
2022/03/24 08:31:26;;;;;;;7.17;6.13;;;13.30;70.30;;;;;;5055391;28;20456;-49
2022/03/24 08:33:55;;;;;;;6.40;5.80;;;13.30;70.30;;;;;;5069746;28;20974;-47
2022/03/24 08:36:25;;;;;;;6.83;6.13;;;13.30;70.20;;;;;;5070377;28;21131;-49
2022/03/24 08:38:56;;;;;;;7.10;6.40;;;13.30;70.30;;;;;;5060258;28;20467;-50
2022/03/24 08:41:24;;;;;;;7.30;6.07;;;13.30;70.20;;;;;;5051956;28;20440;-46
2022/03/24 08:43:53;;;;;;;7.93;7.07;;;13.30;70.00;;;;;;5062653;28;20471;-48
2022/03/24 08:46:25;;;;;;;7.00;6.00;;;13.30;70.00;;;;;;5070130;28;21009;-49
2022/03/24 08:48:54;;;;;;;6.50;5.90;;;13.30;70.10;;;;;;5060513;28;20540;-49
2022/03/24 08:51:27;;;;;;;9.67;8.63;;;13.30;70.00;;;;;;5070822;28;20502;-50
2022/03/24 08:53:55;;;;;;;8.03;7.23;;;13.30;69.80;;;;;;5049877;28;20479;-48
2022/03/24 08:56:24;;;;;;;9.80;8.80;;;13.30;69.50;;;;;;5051450;28;20516;-46
2022/03/24 08:58:52;;;;;;;7.90;7.03;;;13.30;69.70;;;;;;5064422;28;20467;-46
2022/03/24 09:01:21;;;;;;;8.37;7.50;;;13.30;69.70;;;;;;5069777;28;20783;-49
2022/03/24 09:03:51;;;;;;;10.40;8.77;;;13.30;69.50;;;;;;5068245;28;20464;-47
2022/03/24 09:06:22;;;;;;;7.33;6.57;;;13.30;69.30;;;;;;5060359;28;20490;-47
2022/03/24 09:08:53;;;;;;;9.57;7.47;;;13.30;69.50;;;;;;5070572;28;20559;-46
2022/03/24 09:11:21;;;;;;;8.63;7.33;;;13.30;69.40;;;;;;5058086;28;20422;-47
2022/03/24 09:13:50;;;;;;;7.53;6.73;;;13.30;69.50;;;;;;5060864;28;20461;-48
2022/03/24 09:16:19;;;;;;;9.43;7.77;;;13.30;69.70;;;;;;5069497;28;20455;-50
2022/03/24 09:18:47;;;;;;;8.70;7.23;;;13.30;70.00;;;;;;5060449;28;20457;-47
2022/03/24 09:21:17;;;;;;;10.20;6.83;;;13.30;69.80;;;;;;5069220;28;20474;-48
2022/03/24 09:23:48;;;;;;;8.20;7.40;;;13.30;69.70;;;;;;5067327;28;20472;-49
2022/03/24 09:26:19;;;;;;;8.50;7.70;;;13.30;69.80;;;;;;5070534;28;20498;-48
2022/03/24 09:28:59;;;;;;;8.63;7.00;;;13.30;69.80;;;;;;5070483;28;20460;-49
2022/03/24 09:31:27;;;;;;;12.87;6.60;;;13.30;69.90;;;;;;5055835;28;20497;-47
2022/03/24 09:33:56;;;;;;;8.30;7.40;;;13.30;69.90;;;;;;5066883;28;20471;-47
2022/03/24 09:36:25;;;;;;;7.83;7.03;;;13.30;69.90;;;;;;5069606;28;20856;-49
2022/03/24 09:38:54;;;;;;;7.27;6.57;;;13.30;69.90;;;;;;5069326;28;20550;-49
2022/03/24 09:41:27;;;;;;;8.90;7.20;;;13.30;70.00;;;;;;5055952;28;21024;-47
2022/03/24 09:43:57;;;;;;;9.47;8.33;;;13.30;70.00;;;;;;5049224;28;20461;-48
2022/03/24 09:46:28;;;;;;;8.07;7.27;;;13.30;69.90;;;;;;5057981;28;20447;-48
2022/03/24 09:48:59;;;;;;;8.23;7.53;;;13.30;69.90;;;;;;5059683;28;20975;-49
2022/03/24 09:51:29;;;;;;;8.00;7.20;;;13.30;69.90;;;;;;5050626;28;20638;-47
2022/03/24 09:53:57;;;;;;;8.10;7.23;;;13.30;70.00;;;;;;5052516;28;20857;-47
2022/03/24 09:56:27;;;;;;;8.73;7.87;;;13.30;69.90;;;;;;5069907;28;20800;-46
2022/03/24 09:58:55;;;;;;;9.20;8.30;;;13.30;69.70;;;;;;5063908;28;20524;-47
2022/03/24 10:01:24;;;;;;;9.60;8.27;;;13.20;69.80;;;;;;5058420;28;20460;-49
2022/03/24 10:04:07;;;;;;;10.83;9.73;;;13.30;69.80;;;;;;5059506;28;20456;-48
2022/03/24 10:06:39;;;;;;;18.50;11.97;;;13.30;68.90;;;;;;5069148;28;20444;-45
2022/03/24 10:09:08;;;;;;;20.07;14.60;;;13.40;67.70;;;;;;5057676;28;20466;-48
2022/03/24 10:11:37;;;;;;;21.33;16.47;;;13.50;64.70;;;;;;5068778;28;20911;-47
2022/03/24 10:14:05;;;;;;;23.67;18.43;;;13.50;63.50;;;;;;5068541;28;20476;-47
2022/03/24 10:16:44;;;;;;;23.40;19.07;;;13.60;62.50;;;;;;5069854;28;20444;-48
2022/03/24 10:19:18;;;;;;;25.03;19.80;;;13.60;60.80;;;;;;5049375;28;20461;-47
2022/03/24 10:21:49;;;;;;;27.43;20.27;;;13.70;60.60;;;;;;5051975;28;20476;-51
2022/03/24 10:24:19;;;;;;;27.23;21.50;;;13.70;61.10;;;;;;5048246;28;20534;-48
2022/03/24 10:26:51;;;;;;;37.10;23.50;;;13.70;60.00;;;;;;5048886;28;20441;-48
2022/03/24 10:29:21;;;;;;;29.60;23.40;;;13.70;59.10;;;;;;5056835;28;20500;-46
2022/03/24 10:31:53;;;;;;;29.17;20.87;;;13.70;60.20;;;;;;5065751;28;20510;-47
2022/03/24 10:34:30;;;;;;;31.10;23.70;;;13.70;59.10;;;;;;5069459;28;20823;-47
2022/03/24 10:37:01;;;;;;;30.20;22.60;;;13.70;58.10;;;;;;5067581;28;20534;-48
2022/03/24 10:39:30;;;;;;;28.93;21.53;;;13.70;58.00;;;;;;5053680;28;20465;-48
2022/03/24 10:42:14;;;;;;;30.90;22.20;;;13.70;58.00;;;;;;5058626;28;20473;-47
2022/03/24 10:45:12;;;;;;;29.50;21.60;;;13.70;58.00;;;;;;5060823;28;20553;-50
2022/03/24 10:47:46;;;;;;;28.13;19.83;;;13.70;58.10;;;;;;5069321;28;20452;-48
2022/03/24 10:50:37;;;;;;;29.57;21.30;;;13.70;58.00;;;;;;5053069;28;20458;-48
2022/03/24 10:53:07;;;;;;;25.93;19.80;;;13.60;59.60;;;;;;5066587;28;20497;-47
2022/03/24 10:55:46;;;;;;;25.23;18.03;;;13.60;60.30;;;;;;5053157;28;20483;-48
2022/03/24 10:58:22;;;;;;;23.37;17.30;;;13.50;60.70;;;;;;5035545;28;20467;-47
2022/03/24 11:00:53;;;;;;;24.57;18.80;;;13.50;61.50;;;;;;5055839;28;20582;-46
2022/03/24 11:03:22;;;;;;;28.40;19.17;;;13.50;61.90;;;;;;5072982;28;20513;-47
2022/03/24 11:05:51;;;;;;;23.43;17.23;;;13.40;62.10;;;;;;5073363;28;20423;-48
2022/03/24 11:08:20;;;;;;;21.80;15.67;;;13.40;62.50;;;;;;5053507;28;20554;-47
2022/03/24 11:10:49;;;;;;;23.50;17.00;;;13.40;62.60;;;;;;5073614;28;20471;-46
2022/03/24 11:13:31;;;;;;;19.70;16.27;;;13.40;63.00;;;;;;5072949;28;20471;-46
2022/03/24 11:16:00;;;;;;;17.27;15.40;;;13.40;63.50;;;;;;5054467;28;20451;-47
2022/03/24 11:18:28;;;;;;;16.10;14.43;;;13.40;63.60;;;;;;5059087;28;20468;-47
2022/03/24 11:21:04;;;;;;;17.47;14.20;;;13.30;63.80;;;;;;5053480;28;20464;-48
2022/03/24 11:23:39;;;;;;;17.40;15.03;;;13.40;64.20;;;;;;5052711;28;20509;-48
2022/03/24 11:26:09;;;;;;;17.57;14.60;;;13.30;64.40;;;;;;5059600;28;20436;-48
2022/03/24 11:28:40;;;;;;;19.07;14.37;;;13.40;64.70;;;;;;5051127;28;20465;-48
2022/03/24 11:31:10;;;;;;;16.60;13.90;;;13.40;64.60;;;;;;5064460;28;20923;-49
2022/03/24 11:33:41;;;;;;;15.30;12.50;;;13.30;64.80;;;;;;5051428;28;20520;-46
2022/03/24 11:36:10;;;;;;;18.67;14.43;;;13.40;65.10;;;;;;5052957;28;20448;-46
2022/03/24 11:38:40;;;;;;;14.07;12.10;;;13.40;65.10;;;;;;5068878;28;20978;-47
2022/03/24 11:41:15;;;;;;;18.63;14.20;;;13.40;64.60;;;;;;5073130;28;20509;-46
2022/03/24 11:43:50;;;;;;;15.30;12.23;;;13.30;64.70;;;;;;5068454;28;20474;-48
2022/03/24 11:46:29;;;;;;;15.57;12.27;;;13.40;65.20;;;;;;5071627;28;20493;-48
2022/03/24 11:49:18;;;;;;;13.30;11.67;;;13.30;65.20;;;;;;5071870;28;20551;-48
2022/03/24 11:51:49;;;;;;;13.57;11.77;;;13.40;65.60;;;;;;5071003;28;20451;-48
2022/03/24 11:54:30;;;;;;;13.70;11.73;;;13.30;65.60;;;;;;5071030;28;20467;-46
2022/03/24 11:57:26;;;;;;;13.80;12.30;;;13.30;65.70;;;;;;5053124;28;20426;-47
2022/03/24 12:00:28;;;;;;;14.30;10.60;;;13.30;65.70;;;;;;5051598;28;20508;-47
2022/03/24 12:03:01;;;;;;;12.90;10.97;;;13.30;65.60;;;;;;5060070;28;20462;-49
2022/03/24 12:05:47;;;;;;;15.47;11.00;;;13.30;65.80;;;;;;5071914;28;20442;-47
2022/03/24 12:08:15;;;;;;;11.97;10.67;;;13.30;65.90;;;;;;5070200;28;20511;-47
2022/03/24 12:10:43;;;;;;;11.63;10.23;;;13.40;65.90;;;;;;5067572;28;20851;-46
2022/03/24 12:13:21;;;;;;;11.30;10.10;;;13.30;66.00;;;;;;5071717;28;20983;-47
2022/03/24 12:16:13;;;;;;;12.10;9.57;;;13.40;66.30;;;;;;5069836;28;20509;-48
2022/03/24 12:18:44;;;;;;;11.27;10.13;;;13.40;66.40;;;;;;5057218;28;20500;-48
2022/03/24 12:21:21;;;;;;;12.10;9.90;;;13.30;66.50;;;;;;5071648;28;20427;-49
2022/03/24 12:24:10;;;;;;;11.00;9.53;;;13.40;66.70;;;;;;5070954;28;20538;-46
2022/03/24 12:26:40;;;;;;;11.03;9.57;;;13.40;66.60;;;;;;5072086;28;20911;-48
2022/03/24 12:29:19;;;;;;;10.13;8.43;;;13.40;66.40;;;;;;5057042;28;20490;-46
2022/03/24 12:31:57;;;;;;;13.70;9.70;;;13.30;66.40;;;;;;5056836;28;20437;-47
2022/03/24 12:34:31;;;;;;;10.40;9.30;;;13.40;66.40;;;;;;5056419;28;20470;-49
2022/03/24 12:37:00;;;;;;;9.87;8.40;;;13.40;66.40;;;;;;5070013;28;21056;-46
2022/03/24 12:39:34;;;;;;;10.57;8.87;;;13.40;66.30;;;;;;5067870;28;20470;-48
2022/03/24 12:42:05;;;;;;;11.67;8.67;;;13.40;65.70;;;;;;5067911;28;20460;-49
2022/03/24 12:44:50;;;;;;;10.30;9.30;;;13.40;65.70;;;;;;5061455;28;20479;-49
2022/03/24 12:47:31;;;;;;;11.00;8.70;;;13.40;65.80;;;;;;5055836;28;20442;-48
2022/03/24 12:50:07;;;;;;;10.83;9.23;;;13.40;65.80;;;;;;5062587;28;20472;-49
2022/03/24 12:52:53;;;;;;;10.43;9.33;;;13.40;65.70;;;;;;5059972;28;20525;-45
2022/03/24 12:55:26;;;;;;;11.00;8.90;;;13.40;66.00;;;;;;5059413;28;20497;-50